createdAt,value
2018-08-08T00:01:56.889Z,28.30
2018-08-08T00:04:04.157Z,28.20
2018-08-08T00:06:08.213Z,28.10
2018-08-08T00:08:14.027Z,27.70
2018-08-08T00:10:17.965Z,27.30
2018-08-08T00:12:26.957Z,27.10
2018-08-08T00:14:31.015Z,27.10
2018-08-08T00:16:37.375Z,27.30
2018-08-08T00:18:41.789Z,27.50
2018-08-08T00:20:48.268Z,27.60
2018-08-08T00:22:52.814Z,27.70
2018-08-08T00:25:00.965Z,27.70
2018-08-08T00:27:06.887Z,27.70
2018-08-08T00:29:12.044Z,27.60
2018-08-08T00:31:17.213Z,27.50
2018-08-08T00:33:26.779Z,27.40
2018-08-08T00:35:35.435Z,27.50
2018-08-08T00:37:40.798Z,27.50
2018-08-08T00:39:49.311Z,27.30
2018-08-08T00:41:54.470Z,27.30
2018-08-08T00:43:59.231Z,27.40
2018-08-08T00:46:03.581Z,27.30
2018-08-08T00:48:08.141Z,27.20
2018-08-08T00:50:14.560Z,27.10
2018-08-08T00:52:18.716Z,27.10
2018-08-08T00:54:22.752Z,27.00
2018-08-08T00:56:27.215Z,27.00
2018-08-08T00:58:32.316Z,27.10
2018-08-08T01:00:37.019Z,27.10
2018-08-08T01:02:42.605Z,27.10
2018-08-08T01:04:47.667Z,27.20
2018-08-08T01:06:51.905Z,27.30
2018-08-08T01:08:58.801Z,27.30
2018-08-08T01:11:03.312Z,27.30
2018-08-08T01:13:09.144Z,27.30
2018-08-08T01:15:15.913Z,27.30
2018-08-08T01:17:20.408Z,27.30
2018-08-08T01:19:24.359Z,27.30
2018-08-08T01:21:29.459Z,27.40
2018-08-08T01:23:37.237Z,27.40
2018-08-08T01:25:41.834Z,27.20
2018-08-08T01:27:48.464Z,27.30
2018-08-08T01:29:53.374Z,27.40
2018-08-08T01:31:59.084Z,27.40
2018-08-08T01:34:04.045Z,27.50
2018-08-08T01:36:08.637Z,27.50
2018-08-08T01:38:14.367Z,27.50
2018-08-08T01:40:20.296Z,27.50
2018-08-08T01:42:24.431Z,27.50
2018-08-08T01:44:28.988Z,27.50
2018-08-08T01:46:34.001Z,27.40
2018-08-08T01:48:38.665Z,27.30
2018-08-08T01:50:46.098Z,27.10
2018-08-08T01:52:52.533Z,27.10
2018-08-08T01:54:58.240Z,27.10
2018-08-08T01:57:02.876Z,27.10
2018-08-08T01:59:06.836Z,27.10
2018-08-08T02:01:11.306Z,27.10
2018-08-08T02:03:16.634Z,26.90
2018-08-08T02:05:22.556Z,26.80
2018-08-08T02:07:27.213Z,26.80
2018-08-08T02:09:32.646Z,26.70
2018-08-08T02:11:38.431Z,26.60
2018-08-08T02:13:42.317Z,26.60
2018-08-08T02:15:46.726Z,26.60
2018-08-08T02:17:52.048Z,26.50
2018-08-08T02:19:56.555Z,26.40
2018-08-08T02:22:08.740Z,26.20
2018-08-08T02:24:14.374Z,26.10
2018-08-08T02:26:20.416Z,26.10
2018-08-08T02:28:24.547Z,26.10
2018-08-08T02:30:35.810Z,26.10
2018-08-08T02:32:46.956Z,26.10
2018-08-08T02:34:52.284Z,25.90
2018-08-08T02:36:58.115Z,26.00
2018-08-08T02:39:02.039Z,26.00
2018-08-08T02:41:07.127Z,26.00
2018-08-08T02:43:11.801Z,26.00
2018-08-08T02:45:22.415Z,26.00
2018-08-08T02:47:26.370Z,26.00
2018-08-08T02:49:31.582Z,26.00
2018-08-08T02:51:38.848Z,26.00
2018-08-08T02:53:43.483Z,26.00
2018-08-08T02:55:52.822Z,26.00
2018-08-08T03:00:01.566Z,25.90
2018-08-08T03:02:10.735Z,25.90
2018-08-08T03:04:16.307Z,25.90
2018-08-08T03:06:21.505Z,25.60
2018-08-08T03:08:25.729Z,25.60
2018-08-08T03:10:30.403Z,26.00
2018-08-08T03:12:35.600Z,26.20
2018-08-08T03:14:48.556Z,26.20
2018-08-08T03:16:55.468Z,26.30
2018-08-08T03:19:03.670Z,26.10
2018-08-08T03:21:08.732Z,26.10
2018-08-08T03:23:13.662Z,26.30
2018-08-08T03:25:18.892Z,26.40
2018-08-08T03:27:23.845Z,26.40
2018-08-08T03:29:28.407Z,26.30
2018-08-08T03:31:34.955Z,26.10
2018-08-08T03:33:40.211Z,25.50
2018-08-08T03:35:44.766Z,25.00
2018-08-08T03:37:49.940Z,24.40
2018-08-08T03:39:54.043Z,24.10
2018-08-08T03:42:02.552Z,23.80
2018-08-08T03:44:07.467Z,23.60
2018-08-08T03:46:12.647Z,23.30
2018-08-08T03:48:17.221Z,23.10
2018-08-08T03:50:27.537Z,23.10
2018-08-08T03:52:32.136Z,22.80
2018-08-08T03:54:43.289Z,22.60
2018-08-08T03:56:49.575Z,22.50
2018-08-08T03:58:54.918Z,22.60
2018-08-08T04:00:59.470Z,22.60
2018-08-08T04:05:09.841Z,22.70
2018-08-08T04:07:14.653Z,22.60
2018-08-08T04:09:21.216Z,22.70
2018-08-08T04:11:25.862Z,22.70
2018-08-08T04:13:30.966Z,22.80
2018-08-08T04:15:36.129Z,22.80
2018-08-08T04:17:40.754Z,23.00
2018-08-08T04:19:45.625Z,23.30
2018-08-08T04:21:50.809Z,23.30
2018-08-08T04:23:54.745Z,23.20
2018-08-08T04:26:00.529Z,23.20
2018-08-08T04:28:08.258Z,23.30
2018-08-08T04:30:18.701Z,23.30
2018-08-08T04:32:23.659Z,23.20
2018-08-08T04:34:30.844Z,23.20
2018-08-08T04:36:36.151Z,23.30
2018-08-08T04:38:40.690Z,23.50
2018-08-08T04:40:47.635Z,23.60
2018-08-08T04:42:53.808Z,23.70
2018-08-08T04:44:59.420Z,23.70
2018-08-08T04:47:07.894Z,23.80
2018-08-08T04:49:12.679Z,23.80
2018-08-08T04:51:16.645Z,23.80
2018-08-08T04:57:31.892Z,24.00
2018-08-08T04:59:36.232Z,24.20
2018-08-08T05:01:40.490Z,24.30
2018-08-08T05:05:50.341Z,24.60
2018-08-08T05:07:54.963Z,24.70
2018-08-08T05:09:59.983Z,24.70
2018-08-08T05:14:12.199Z,24.80
2018-08-08T05:16:18.167Z,24.80
2018-08-08T05:20:26.265Z,25.20
2018-08-08T05:24:35.413Z,25.30
2018-08-08T05:26:41.610Z,25.50
2018-08-08T05:28:46.193Z,25.60
2018-08-08T05:30:50.265Z,25.70
2018-08-08T05:32:56.827Z,25.70
2018-08-08T05:35:03.183Z,25.70
2018-08-08T05:37:07.354Z,25.60
2018-08-08T05:39:15.642Z,25.60
2018-08-08T05:41:20.204Z,25.60
2018-08-08T05:43:25.900Z,25.60
2018-08-08T05:47:34.161Z,25.60
2018-08-08T05:49:40.191Z,25.60
2018-08-08T05:51:44.957Z,25.70
2018-08-08T05:53:50.558Z,25.80
2018-08-08T05:57:59.923Z,25.90
2018-08-08T06:00:06.976Z,26.00
2018-08-08T06:02:12.065Z,26.10
2018-08-08T06:04:17.231Z,26.20
2018-08-08T06:06:22.759Z,26.20
2018-08-08T06:08:26.720Z,26.40
2018-08-08T06:10:32.136Z,26.50
2018-08-08T06:14:50.663Z,26.90
2018-08-08T06:16:55.502Z,27.20
2018-08-08T06:19:02.404Z,27.30
2018-08-08T06:21:08.493Z,27.30
2018-08-08T06:23:14.707Z,27.30
2018-08-08T06:25:21.771Z,27.40
2018-08-08T06:27:28.739Z,27.40
2018-08-08T06:29:34.489Z,27.20
2018-08-08T06:31:40.434Z,27.20
2018-08-08T06:33:45.637Z,27.10
2018-08-08T06:35:50.305Z,27.20
2018-08-08T06:37:57.915Z,27.20
2018-08-08T06:42:06.693Z,27.70
2018-08-08T06:44:13.434Z,27.70
2018-08-08T06:46:19.504Z,27.80
2018-08-08T06:50:30.132Z,27.90
2018-08-08T06:52:55.486Z,28.10
2018-08-08T06:55:02.953Z,28.30
2018-08-08T06:57:08.776Z,28.70
2018-08-08T06:59:12.948Z,29.10
2018-08-08T07:01:19.577Z,29.30
2018-08-08T07:03:25.379Z,29.70
2018-08-08T07:05:30.744Z,29.90
2018-08-08T07:07:37.280Z,30.10
2018-08-08T07:09:42.944Z,30.40
2018-08-08T07:11:47.583Z,30.50
2018-08-08T07:13:52.130Z,30.60
2018-08-08T07:18:09.334Z,30.60
2018-08-08T07:20:16.316Z,30.60
2018-08-08T07:22:23.933Z,30.80
2018-08-08T07:24:31.860Z,30.90
2018-08-08T07:26:36.010Z,31.00
2018-08-08T07:28:43.287Z,31.10
2018-08-08T07:30:49.803Z,31.30
2018-08-08T07:32:54.250Z,31.50
2018-08-08T07:35:00.934Z,31.60
2018-08-08T07:37:05.021Z,31.70
2018-08-08T07:39:11.584Z,31.90
2018-08-08T07:41:16.929Z,32.00
2018-08-08T07:43:20.982Z,31.90
2018-08-08T07:45:29.858Z,31.90
2018-08-08T07:47:35.783Z,32.00
2018-08-08T07:49:42.070Z,32.20
2018-08-08T07:51:46.403Z,32.30
2018-08-08T07:53:51.365Z,32.40
2018-08-08T07:55:55.583Z,32.60
2018-08-08T07:58:43.784Z,32.70
2018-08-08T08:00:51.435Z,32.60
2018-08-08T08:03:00.763Z,32.50
2018-08-08T08:05:14.720Z,32.60
2018-08-08T08:07:21.253Z,32.70
2018-08-08T08:09:29.080Z,32.70
2018-08-08T08:13:55.207Z,32.70
2018-08-08T08:16:08.640Z,32.80
2018-08-08T08:18:17.159Z,33.00
2018-08-08T08:20:25.981Z,33.10
2018-08-08T08:22:32.671Z,33.00
2018-08-08T08:24:45.731Z,33.10
2018-08-08T08:26:52.128Z,33.10
2018-08-08T08:28:58.088Z,32.80
2018-08-08T08:31:05.364Z,32.80
2018-08-08T08:33:10.751Z,32.80
2018-08-08T08:35:16.841Z,33.00
2018-08-08T08:37:24.833Z,32.90
2018-08-08T08:39:31.614Z,32.90
2018-08-08T08:44:04.498Z,32.30
2018-08-08T08:46:17.443Z,32.20
2018-08-08T08:48:32.211Z,32.10
2018-08-08T08:50:52.248Z,32.20
2018-08-08T08:53:01.223Z,32.00
2018-08-08T08:55:13.516Z,31.90
2018-08-08T08:57:19.209Z,31.80
2018-08-08T08:59:39.692Z,31.80
2018-08-08T09:01:54.808Z,31.80
2018-08-08T09:04:09.734Z,32.00
2018-08-08T09:06:14.794Z,32.20
2018-08-08T09:08:33.081Z,32.10
2018-08-08T09:10:43.100Z,32.00
2018-08-08T09:12:49.814Z,31.90
2018-08-08T09:15:09.363Z,31.80
2018-08-08T09:17:18.425Z,31.70
2018-08-08T09:19:26.628Z,31.80
2018-08-08T09:21:32.191Z,31.80
2018-08-08T09:23:47.613Z,31.80
2018-08-08T09:25:53.440Z,32.00
2018-08-08T09:28:00.825Z,32.30
2018-08-08T09:30:24.163Z,32.50
2018-08-08T09:32:29.879Z,32.70
2018-08-08T09:34:38.404Z,32.70
2018-08-08T09:36:50.707Z,32.80
2018-08-08T09:38:56.447Z,32.70
2018-08-08T09:41:05.456Z,32.50
2018-08-08T09:43:12.746Z,32.50
2018-08-08T09:45:25.772Z,32.70
2018-08-08T09:47:36.801Z,33.00
2018-08-08T09:49:50.223Z,33.50
2018-08-08T09:52:09.363Z,33.90
2018-08-08T09:54:25.360Z,34.10
2018-08-08T09:56:40.663Z,34.00
2018-08-08T09:58:55.046Z,34.10
2018-08-08T10:01:13.214Z,34.20
2018-08-08T10:03:25.731Z,34.30
2018-08-08T10:06:04.440Z,34.50
2018-08-08T10:08:08.507Z,34.90
2018-08-08T10:10:13.785Z,35.20
2018-08-08T10:12:26.729Z,34.90
2018-08-08T10:14:32.795Z,34.60
2018-08-08T10:16:38.324Z,34.20
2018-08-08T10:18:43.114Z,34.20
2018-08-08T10:20:47.546Z,34.00
2018-08-08T10:22:52.299Z,33.90
2018-08-08T10:24:56.890Z,33.70
2018-08-08T10:27:01.628Z,33.50
2018-08-08T10:29:06.498Z,33.40
2018-08-08T10:31:13.661Z,33.40
2018-08-08T10:33:22.904Z,33.40
2018-08-08T10:35:26.949Z,33.40
2018-08-08T10:37:31.635Z,33.40
2018-08-08T10:39:38.515Z,33.30
2018-08-08T10:41:44.586Z,33.20
2018-08-08T10:43:50.876Z,33.10
2018-08-08T10:45:55.958Z,32.90
2018-08-08T10:48:01.302Z,32.90
2018-08-08T10:50:06.260Z,33.20
2018-08-08T10:52:10.876Z,33.40
2018-08-08T10:54:15.728Z,33.80
2018-08-08T10:56:20.544Z,34.00
2018-08-08T10:58:26.623Z,34.00
2018-08-08T11:00:36.033Z,33.70
2018-08-08T11:02:41.122Z,33.60
2018-08-08T11:04:50.484Z,33.60
2018-08-08T11:07:02.724Z,33.50
2018-08-08T11:09:16.500Z,33.40
2018-08-08T11:11:23.357Z,33.10
2018-08-08T11:13:30.499Z,33.20
2018-08-08T11:15:36.174Z,33.20
2018-08-08T11:17:40.900Z,33.30
2018-08-08T11:19:47.699Z,33.50
2018-08-08T11:21:56.378Z,33.60
2018-08-08T11:24:01.316Z,33.60
2018-08-08T11:26:07.400Z,33.90
2018-08-08T11:28:14.286Z,33.90
2018-08-08T11:30:24.181Z,33.60
2018-08-08T11:32:31.827Z,33.40
2018-08-08T11:34:38.509Z,33.30
2018-08-08T11:36:45.176Z,33.50
2018-08-08T11:38:49.808Z,33.60
2018-08-08T11:40:54.456Z,33.50
2018-08-08T11:43:00.103Z,33.50
2018-08-08T11:45:08.078Z,33.50
2018-08-08T11:47:17.745Z,33.70
2018-08-08T11:49:25.751Z,33.80
2018-08-08T11:51:31.374Z,34.00
2018-08-08T11:53:37.899Z,33.90
2018-08-08T11:58:00.393Z,33.70
2018-08-08T12:00:06.693Z,33.70
2018-08-08T12:02:12.895Z,33.70
2018-08-08T12:04:18.211Z,33.70
2018-08-08T12:06:22.627Z,33.90
2018-08-08T12:08:31.860Z,34.00
2018-08-08T12:10:40.039Z,34.10
2018-08-08T12:12:47.711Z,34.30
2018-08-08T12:14:53.282Z,34.40
2018-08-08T12:17:00.002Z,34.50
2018-08-08T12:19:06.382Z,34.80
2018-08-08T12:21:13.011Z,34.70
2018-08-08T12:23:23.094Z,34.50
2018-08-08T12:25:28.871Z,34.70
2018-08-08T12:27:34.185Z,34.80
2018-08-08T12:29:40.699Z,34.60
2018-08-08T12:31:48.896Z,34.50
2018-08-08T12:33:55.744Z,34.50
2018-08-08T12:36:02.194Z,34.70
2018-08-08T12:38:11.741Z,34.70
2018-08-08T12:40:18.059Z,34.70
2018-08-08T12:42:22.289Z,34.70
2018-08-08T12:44:30.557Z,34.70
2018-08-08T12:46:35.743Z,34.70
2018-08-08T12:48:40.965Z,34.60
2018-08-08T12:50:47.826Z,34.80
2018-08-08T12:52:57.686Z,35.00
2018-08-08T12:55:04.819Z,35.20
2018-08-08T12:57:17.753Z,35.30
2018-08-08T12:59:30.514Z,35.30
2018-08-08T13:01:39.419Z,35.20
2018-08-08T13:03:44.780Z,35.20
2018-08-08T13:05:49.724Z,35.00
2018-08-08T13:07:56.473Z,35.00
2018-08-08T13:10:02.115Z,35.10
2018-08-08T13:12:12.624Z,35.20
2018-08-08T13:14:17.782Z,34.80
2018-08-08T13:16:24.715Z,34.60
2018-08-08T13:18:34.410Z,34.80
2018-08-08T13:20:39.084Z,35.20
2018-08-08T13:22:44.443Z,35.30
2018-08-08T13:24:52.388Z,35.50
2018-08-08T13:27:00.879Z,35.60
2018-08-08T13:29:06.314Z,35.80
2018-08-08T13:31:13.117Z,35.90
2018-08-08T13:33:20.171Z,36.10
2018-08-08T13:35:25.791Z,36.30
2018-08-08T13:37:36.516Z,36.00
2018-08-08T13:39:42.791Z,35.60
2018-08-08T13:41:47.471Z,35.60
2018-08-08T13:43:52.920Z,35.80
2018-08-08T13:45:57.462Z,36.00
2018-08-08T13:48:03.965Z,36.20
2018-08-08T13:50:09.296Z,36.30
2018-08-08T13:52:15.999Z,36.40
2018-08-08T13:54:23.526Z,36.40
2018-08-08T13:56:29.852Z,36.20
2018-08-08T13:58:35.077Z,36.00
2018-08-08T14:00:39.850Z,35.80
2018-08-08T14:02:44.299Z,35.60
2018-08-08T14:04:51.363Z,35.60
2018-08-08T14:06:57.201Z,35.70
2018-08-08T14:09:27.586Z,35.90
2018-08-08T14:11:36.141Z,35.90
2018-08-08T14:13:44.837Z,36.20
2018-08-08T14:15:50.567Z,36.50
2018-08-08T14:17:55.847Z,36.50
2018-08-08T14:20:01.824Z,36.50
2018-08-08T14:22:06.556Z,36.40
2018-08-08T14:24:12.800Z,36.40
2018-08-08T14:26:18.680Z,36.30
2018-08-08T14:28:24.387Z,36.20
2018-08-08T14:30:30.101Z,36.20
2018-08-08T14:32:35.594Z,36.30
2018-08-08T14:34:40.105Z,36.20
2018-08-08T14:36:44.102Z,36.20
2018-08-08T14:38:50.328Z,36.20
2018-08-08T14:40:55.578Z,36.30
2018-08-08T14:43:02.638Z,36.50
2018-08-08T14:45:07.705Z,36.70
2018-08-08T14:47:13.119Z,36.80
2018-08-08T14:49:17.149Z,37.00
2018-08-08T14:51:22.423Z,37.10
2018-08-08T14:53:27.896Z,37.00
2018-08-08T14:55:31.930Z,37.20
2018-08-08T14:57:37.606Z,37.50
2018-08-08T14:59:42.351Z,37.50
2018-08-08T15:04:17.115Z,37.60
2018-08-08T15:06:34.953Z,37.90
2018-08-08T15:08:44.773Z,37.80
2018-08-08T15:10:54.790Z,37.90
2018-08-08T15:13:03.597Z,37.90
2018-08-08T15:15:24.427Z,37.90
2018-08-08T15:17:34.709Z,37.80
2018-08-08T15:19:45.335Z,38.00
2018-08-08T15:21:54.464Z,37.90
2018-08-08T15:24:01.841Z,38.00
2018-08-08T15:26:23.078Z,37.90
2018-08-08T15:28:35.016Z,37.90
2018-08-08T15:31:01.323Z,37.90
2018-08-08T15:33:09.081Z,37.50
2018-08-08T15:35:26.091Z,37.50
2018-08-08T15:37:44.197Z,37.30
2018-08-08T15:39:52.057Z,37.40
2018-08-08T15:41:59.865Z,37.20
2018-08-08T15:44:16.182Z,37.10
2018-08-08T15:46:25.495Z,37.10
2018-08-08T15:48:39.287Z,37.30
2018-08-08T15:50:47.529Z,37.30
2018-08-08T15:52:56.196Z,37.30
2018-08-08T15:55:07.216Z,37.20
2018-08-08T15:57:18.708Z,37.40
2018-08-08T15:59:30.229Z,37.50
2018-08-08T16:01:35.005Z,37.70
2018-08-08T16:03:40.891Z,38.00
2018-08-08T16:05:50.108Z,38.10
2018-08-08T16:08:14.988Z,38.20
2018-08-08T16:10:42.422Z,38.10
2018-08-08T16:13:06.238Z,37.90
2018-08-08T16:15:24.443Z,38.10
2018-08-08T16:17:41.810Z,38.10
2018-08-08T16:19:50.136Z,37.90
2018-08-08T16:21:56.733Z,37.60
2018-08-08T16:24:05.146Z,37.60
2018-08-08T16:26:21.472Z,37.70
2018-08-08T16:28:35.668Z,37.90
2018-08-08T16:33:07.764Z,37.40
2018-08-08T16:35:18.874Z,37.30
2018-08-08T16:37:25.725Z,37.10
2018-08-08T16:39:32.758Z,36.80
2018-08-08T16:41:38.387Z,36.20
2018-08-08T16:43:49.999Z,35.90
2018-08-08T16:46:11.917Z,36.10
2018-08-08T16:48:19.029Z,36.10
2018-08-08T16:50:25.861Z,36.20
2018-08-08T16:52:30.660Z,36.20
2018-08-08T16:54:42.252Z,36.30
2018-08-08T16:56:46.381Z,36.10
2018-08-08T16:58:56.097Z,35.80
2018-08-08T17:01:05.955Z,35.30
2018-08-08T17:03:20.293Z,35.20
2018-08-08T17:05:34.730Z,35.10
2018-08-08T17:07:45.542Z,35.20
2018-08-08T17:09:56.320Z,35.40
2018-08-08T17:12:22.033Z,35.30
2018-08-08T17:14:42.415Z,35.30
2018-08-08T17:17:02.276Z,35.50
2018-08-08T17:19:12.271Z,35.80
2018-08-08T17:21:20.947Z,36.00
2018-08-08T17:23:28.419Z,36.00
2018-08-08T17:25:33.495Z,36.00
2018-08-08T17:27:37.398Z,36.10
2018-08-08T17:29:42.665Z,36.20
2018-08-08T17:31:55.881Z,36.20
2018-08-08T17:34:00.498Z,36.00
2018-08-08T17:36:08.066Z,36.20
2018-08-08T17:38:14.522Z,36.20
2018-08-08T17:40:18.986Z,36.20
2018-08-08T17:42:25.281Z,36.10
2018-08-08T17:44:32.024Z,36.00
2018-08-08T17:46:36.606Z,35.80
2018-08-08T17:48:44.408Z,35.50
2018-08-08T17:50:51.195Z,35.10
2018-08-08T17:52:55.682Z,34.90
2018-08-08T17:55:01.228Z,34.60
2018-08-08T17:57:08.238Z,34.40
2018-08-08T17:59:18.138Z,34.20
2018-08-08T18:01:23.858Z,34.10
2018-08-08T18:03:33.829Z,33.90
2018-08-08T18:05:39.197Z,33.60
2018-08-08T18:07:44.611Z,33.50
2018-08-08T18:09:50.607Z,33.40
2018-08-08T18:11:56.231Z,33.40
2018-08-08T18:14:03.145Z,33.30
2018-08-08T18:16:08.325Z,33.10
2018-08-08T18:18:15.305Z,32.90
2018-08-08T18:20:19.318Z,32.80
2018-08-08T18:22:27.355Z,32.60
2018-08-08T18:24:35.334Z,32.30
2018-08-08T18:26:40.871Z,32.20
2018-08-08T18:28:51.684Z,32.10
2018-08-08T18:30:58.524Z,32.00
2018-08-08T18:33:03.643Z,31.90
2018-08-08T18:35:14.540Z,31.80
2018-08-08T18:37:19.318Z,31.80
2018-08-08T18:39:26.329Z,31.50
2018-08-08T18:41:33.699Z,31.40
2018-08-08T18:43:44.694Z,31.30
2018-08-08T18:45:53.679Z,31.10
2018-08-08T18:48:01.311Z,31.00
2018-08-08T18:50:08.573Z,30.80
2018-08-08T18:52:13.529Z,30.70
2018-08-08T18:54:18.286Z,30.60
2018-08-08T18:56:22.230Z,30.50
2018-08-08T18:58:26.308Z,30.50
2018-08-08T19:00:31.242Z,30.40
2018-08-08T19:08:25.571Z,30.30
2018-08-08T19:10:29.670Z,30.40
2018-08-08T19:12:38.729Z,30.30
2018-08-08T19:14:43.424Z,30.30
2018-08-08T19:16:49.380Z,30.30
2018-08-08T19:18:54.287Z,30.10
2018-08-08T19:21:00.662Z,30.00
2018-08-08T19:23:06.998Z,29.80
2018-08-08T19:27:29.274Z,29.70
2018-08-08T19:29:36.645Z,29.50
2018-08-08T19:31:42.449Z,29.50
2018-08-08T19:33:46.425Z,29.40
2018-08-08T19:35:50.359Z,29.30
2018-08-08T19:37:58.486Z,29.20
2018-08-08T19:40:04.431Z,29.20
2018-08-08T19:42:12.427Z,29.10
2018-08-08T19:44:16.721Z,29.00
2018-08-08T19:46:26.762Z,28.90
2018-08-08T19:48:33.277Z,28.90
2018-08-08T19:50:47.973Z,28.80
2018-08-08T19:52:53.321Z,28.70
2018-08-08T19:54:57.522Z,28.60
2018-08-08T19:57:04.703Z,28.50
2018-08-08T19:59:09.315Z,28.40
2018-08-08T20:01:17.309Z,28.40
2018-08-08T20:03:22.442Z,28.40
2018-08-08T20:05:28.794Z,28.40
2018-08-08T20:07:39.197Z,28.40
2018-08-08T20:09:45.441Z,28.40
2018-08-08T20:11:49.871Z,28.30
2018-08-08T20:13:57.137Z,28.20
2018-08-08T20:16:06.857Z,28.20
2018-08-08T20:18:13.019Z,28.20
2018-08-08T20:20:19.781Z,28.20
2018-08-08T20:22:28.713Z,28.10
2018-08-08T20:24:35.695Z,28.10
2018-08-08T20:26:46.040Z,28.10
2018-08-08T20:28:51.396Z,28.10
2018-08-08T20:30:59.626Z,28.10
2018-08-08T20:33:09.924Z,28.10
2018-08-08T20:35:14.598Z,28.20
2018-08-08T20:37:20.078Z,28.10
2018-08-08T20:39:27.433Z,28.10
2018-08-08T20:41:32.870Z,28.00
2018-08-08T20:43:39.303Z,27.90
2018-08-08T20:45:45.144Z,27.90
2018-08-08T20:47:50.632Z,27.90
2018-08-08T20:49:56.185Z,27.80
2018-08-08T20:52:05.293Z,27.80
2018-08-08T20:54:13.321Z,27.70
2018-08-08T20:56:17.963Z,27.50
2018-08-08T20:58:23.678Z,27.50
2018-08-08T21:00:29.527Z,27.50
2018-08-08T21:02:34.804Z,27.50
2018-08-08T21:04:40.864Z,27.30
2018-08-08T21:06:46.685Z,27.20
2018-08-08T21:08:50.933Z,27.20
2018-08-08T21:10:55.753Z,27.20
2018-08-08T21:13:00.599Z,27.20
2018-08-08T21:15:06.482Z,27.20
2018-08-08T21:17:11.680Z,27.20
2018-08-08T21:19:18.529Z,27.20
2018-08-08T21:21:25.837Z,27.20
2018-08-08T21:23:33.775Z,27.20
2018-08-08T21:25:39.397Z,27.20
2018-08-08T21:27:43.966Z,27.20
2018-08-08T21:29:51.176Z,27.10
2018-08-08T21:31:55.874Z,27.10
2018-08-08T21:34:01.069Z,27.00
2018-08-08T21:36:05.681Z,26.90
2018-08-08T21:38:10.477Z,26.90
2018-08-08T21:40:16.632Z,26.80
2018-08-08T21:42:28.990Z,26.80
2018-08-08T21:44:34.374Z,26.70
2018-08-08T21:46:40.568Z,26.70
2018-08-08T21:48:48.155Z,26.80
2018-08-08T21:50:53.736Z,26.90
2018-08-08T21:52:58.670Z,26.80
2018-08-08T21:55:15.412Z,26.80
2018-08-08T21:57:31.739Z,26.80
2018-08-08T21:59:47.469Z,26.80
2018-08-08T22:02:06.591Z,26.70
2018-08-08T22:04:21.995Z,26.60
2018-08-08T22:08:43.545Z,26.60
2018-08-08T22:11:01.647Z,26.60
2018-08-08T22:13:16.765Z,26.40
2018-08-08T22:15:33.646Z,26.50
2018-08-08T22:17:48.789Z,26.30
2018-08-08T22:19:53.055Z,26.20
2018-08-08T22:21:57.931Z,26.00
2018-08-08T22:24:04.583Z,25.90
2018-08-08T22:26:10.322Z,25.70
2018-08-08T22:28:16.388Z,25.60
2018-08-08T22:30:22.953Z,25.60
2018-08-08T22:32:27.438Z,25.60
2018-08-08T22:34:35.531Z,25.70
2018-08-08T22:36:41.414Z,25.60
2018-08-08T22:38:48.791Z,25.60
2018-08-08T22:40:52.750Z,25.60
2018-08-08T22:42:57.346Z,25.60
2018-08-08T22:45:01.975Z,25.50
2018-08-08T22:47:06.562Z,25.50
2018-08-08T22:49:11.250Z,25.50
2018-08-08T22:52:20.312Z,25.50
2018-08-08T22:54:26.826Z,25.40
2018-08-08T22:56:32.814Z,25.30
2018-08-08T22:58:39.051Z,25.40
2018-08-08T23:00:50.459Z,25.30
2018-08-08T23:02:55.062Z,25.30
2018-08-08T23:04:59.614Z,25.20
2018-08-08T23:07:05.625Z,25.30
2018-08-08T23:09:13.155Z,25.30
2018-08-08T23:11:17.725Z,25.30
2018-08-08T23:13:23.318Z,25.30
2018-08-08T23:15:28.272Z,25.30
2018-08-08T23:17:33.496Z,25.10
2018-08-08T23:19:38.130Z,25.00
2018-08-08T23:21:42.893Z,25.00
2018-08-08T23:23:47.439Z,25.00
2018-08-08T23:25:54.864Z,25.00
2018-08-08T23:28:00.607Z,24.80
2018-08-08T23:30:05.837Z,24.70
2018-08-08T23:32:10.385Z,24.60
2018-08-08T23:34:15.110Z,24.70
2018-08-08T23:36:19.087Z,24.70
2018-08-08T23:38:24.386Z,24.80
2018-08-08T23:40:28.298Z,24.90
2018-08-08T23:42:33.553Z,24.90
2018-08-08T23:44:38.628Z,24.70
2018-08-08T23:46:43.329Z,24.70
2018-08-08T23:48:47.415Z,24.50
2018-08-08T23:50:52.069Z,24.40
2018-08-08T23:52:57.386Z,24.30
2018-08-08T23:55:02.496Z,24.30
2018-08-08T23:57:07.446Z,24.20
2018-08-08T23:59:13.876Z,24.30
